createdAt,value
2022-08-30T04:00:29.643Z,67.13
2022-08-30T04:05:29.515Z,67.74
2022-08-30T04:10:29.437Z,67.54
2022-08-30T04:15:36.438Z,67.13
2022-08-30T04:20:29.352Z,67.33
2022-08-30T04:25:29.299Z,67.23
2022-08-30T04:30:29.221Z,67.33
2022-08-30T04:35:29.186Z,67.23
2022-08-30T04:40:29.158Z,67.13
2022-08-30T04:45:29.133Z,67.23
2022-08-30T04:50:29.017Z,67.23
2022-08-30T04:55:28.964Z,67.03
2022-08-30T05:00:28.921Z,66.42
2022-08-30T05:05:28.845Z,66.22
2022-08-30T05:10:28.802Z,66.33
2022-08-30T05:15:28.738Z,66.73
2022-08-30T05:20:28.694Z,65.82
2022-08-30T05:25:28.644Z,65.62
2022-08-30T05:30:28.567Z,65.52
2022-08-30T05:35:28.539Z,64.92
2022-08-30T05:40:29.221Z,63.81
2022-08-30T05:45:28.419Z,64.11
2022-08-30T05:50:28.363Z,57.35
2022-08-30T05:55:28.303Z,53.52
2022-08-30T06:00:28.317Z,53.12
2022-08-30T06:05:28.212Z,51.71
2022-08-30T06:10:28.177Z,52.42
2022-08-30T06:15:28.198Z,57.35
2022-08-30T06:20:28.035Z,53.72
2022-08-30T06:25:27.993Z,53.63
2022-08-30T06:30:28.934Z,53.92
2022-08-30T06:35:27.865Z,53.02
2022-08-30T06:40:27.961Z,52.42
2022-08-30T06:45:27.773Z,52.42
2022-08-30T06:50:27.705Z,55.84
2022-08-30T06:55:27.660Z,55.64
2022-08-30T07:00:27.609Z,56.85
2022-08-30T07:05:27.535Z,56.15
2022-08-30T07:10:27.490Z,56.65
2022-08-30T07:15:27.624Z,56.04
2022-08-30T07:20:27.373Z,57.86
2022-08-30T07:25:27.323Z,58.56
2022-08-30T07:30:27.277Z,58.76
2022-08-30T07:35:27.202Z,59.27
2022-08-30T07:40:27.196Z,61.08
2022-08-30T07:45:27.093Z,63.10
2022-08-30T07:50:27.049Z,62.29
2022-08-30T07:55:26.994Z,61.29
2022-08-30T08:00:26.945Z,61.79
2022-08-30T08:05:27.033Z,61.69
2022-08-30T08:10:26.832Z,61.59
2022-08-30T08:15:26.780Z,60.88
2022-08-30T08:20:26.725Z,61.08
2022-08-30T08:25:26.671Z,61.29
2022-08-30T08:30:26.620Z,61.18
2022-08-30T08:35:26.568Z,60.17
2022-08-30T08:40:26.554Z,60.17
2022-08-30T08:45:26.455Z,59.97
2022-08-30T08:50:26.405Z,60.08
2022-08-30T08:55:26.356Z,59.88
2022-08-30T09:00:26.314Z,59.88
2022-08-30T09:05:26.350Z,59.67
2022-08-30T09:10:47.155Z,59.37
2022-08-30T09:15:27.171Z,59.67
2022-08-30T09:20:26.080Z,59.77
2022-08-30T09:25:26.031Z,61.69
2022-08-30T09:30:25.987Z,62.09
2022-08-30T09:35:25.957Z,61.39
2022-08-30T09:40:25.905Z,59.97
2022-08-30T09:45:27.851Z,61.29
2022-08-30T09:50:25.770Z,61.08
2022-08-30T09:55:25.806Z,59.97
2022-08-30T10:00:25.658Z,61.49
2022-08-30T10:05:25.612Z,61.79
2022-08-30T10:10:25.561Z,61.08
2022-08-30T10:15:32.538Z,60.28
2022-08-30T10:20:25.450Z,59.88
2022-08-30T10:25:25.410Z,60.98
2022-08-30T10:30:25.330Z,60.78
2022-08-30T10:35:25.289Z,61.49
2022-08-30T10:40:26.199Z,61.69
2022-08-30T10:45:25.185Z,61.59
2022-08-30T10:50:25.133Z,61.59
2022-08-30T10:55:25.077Z,62.19
2022-08-30T11:00:25.026Z,60.68
2022-08-30T11:05:24.970Z,60.88
2022-08-30T11:10:24.923Z,61.08
2022-08-30T11:15:24.866Z,59.97
2022-08-30T11:20:24.818Z,59.77
2022-08-30T11:25:24.760Z,61.29
2022-08-30T11:30:26.504Z,61.69
2022-08-30T11:35:24.650Z,61.18
2022-08-30T11:40:24.607Z,61.59
2022-08-30T11:45:25.167Z,59.88
2022-08-30T11:50:24.503Z,60.98
2022-08-30T11:55:24.460Z,60.98
2022-08-30T12:00:27.042Z,60.17
2022-08-30T12:05:24.333Z,60.08
2022-08-30T12:10:24.281Z,59.77
2022-08-30T12:15:24.225Z,59.37
2022-08-30T12:20:24.175Z,60.17
2022-08-30T12:25:24.122Z,60.68
2022-08-30T12:30:24.071Z,59.88
2022-08-30T12:35:24.013Z,59.97
2022-08-30T12:40:24.036Z,59.67
2022-08-30T12:45:23.995Z,60.48
2022-08-30T12:50:23.889Z,60.88
2022-08-30T12:55:23.805Z,59.88
2022-08-30T13:00:23.758Z,60.28
2022-08-30T13:05:23.696Z,61.18
2022-08-30T13:10:23.639Z,59.88
2022-08-30T13:15:23.586Z,60.38
2022-08-30T13:20:23.538Z,60.28
2022-08-30T13:25:23.482Z,59.77
2022-08-30T13:30:23.431Z,59.77
2022-08-30T13:35:23.429Z,60.08
2022-08-30T13:40:23.349Z,59.88
2022-08-30T13:50:24.218Z,61.08
2022-08-30T13:55:23.165Z,60.98
2022-08-30T14:00:23.424Z,61.69
2022-08-30T14:06:00.574Z,61.08
2022-08-30T14:10:31.799Z,60.88
2022-08-30T14:15:23.952Z,61.69
2022-08-30T14:20:22.893Z,61.39
2022-08-30T14:25:22.844Z,61.69
2022-08-30T14:30:22.795Z,61.89
2022-08-30T14:35:22.740Z,61.79
2022-08-30T14:40:22.786Z,61.49
2022-08-30T14:45:22.639Z,61.59
2022-08-30T14:50:22.582Z,61.79
2022-08-30T14:55:22.530Z,62.09
2022-08-30T15:00:22.473Z,61.89
2022-08-30T15:05:22.439Z,61.59
2022-08-30T15:10:22.373Z,62.90
2022-08-30T15:15:22.319Z,61.69
2022-08-30T15:20:22.263Z,62.60
2022-08-30T15:25:22.210Z,62.49
2022-08-30T15:30:22.154Z,61.89
2022-08-30T15:35:22.760Z,61.89
2022-08-30T15:40:22.100Z,61.89
2022-08-30T15:45:21.999Z,61.79
2022-08-30T15:50:21.943Z,62.80
2022-08-30T15:55:21.897Z,62.70
2022-08-30T16:00:21.839Z,62.90
2022-08-30T16:05:21.788Z,62.60
2022-08-30T16:10:21.730Z,62.80
2022-08-30T16:15:21.678Z,62.80
2022-08-30T16:20:21.624Z,62.90
2022-08-30T16:25:21.563Z,63.10
2022-08-30T16:30:21.510Z,63.50
2022-08-30T16:35:21.454Z,63.50
2022-08-30T16:40:21.451Z,63.90
2022-08-30T16:45:21.352Z,63.81
2022-08-30T16:50:21.294Z,63.70
2022-08-30T16:55:21.242Z,64.21
2022-08-30T17:00:21.194Z,63.81
2022-08-30T17:05:21.135Z,64.11
2022-08-30T17:10:23.409Z,63.90
2022-08-30T17:15:22.027Z,63.90
2022-08-30T17:20:20.975Z,63.70
2022-08-30T17:25:21.302Z,63.81
2022-08-30T17:30:20.876Z,63.70
2022-08-30T17:35:20.811Z,63.70
2022-08-30T17:40:20.782Z,63.81
2022-08-30T17:45:20.701Z,63.50
2022-08-30T17:50:20.647Z,64.51
2022-08-30T17:55:20.594Z,64.72
2022-08-30T18:00:20.560Z,64.61
2022-08-30T18:10:26.831Z,64.41
2022-08-30T18:15:21.373Z,64.92
2022-08-30T18:20:20.323Z,64.72
2022-08-30T18:25:20.263Z,65.01
2022-08-30T18:30:20.220Z,64.81
2022-08-30T18:35:20.158Z,64.92
2022-08-30T18:40:20.167Z,64.51
2022-08-30T18:45:20.045Z,64.61
2022-08-30T18:50:20.150Z,64.72
2022-08-30T18:55:19.941Z,64.61
2022-08-30T19:00:19.886Z,64.51
2022-08-30T19:05:19.832Z,64.31
2022-08-30T19:10:21.105Z,63.70
2022-08-30T19:15:19.734Z,64.01
2022-08-30T19:20:19.665Z,64.01
2022-08-30T19:25:19.614Z,64.01
2022-08-30T19:30:23.065Z,64.01
2022-08-30T19:35:19.590Z,64.01
2022-08-30T19:40:19.550Z,63.90
2022-08-30T19:45:21.783Z,64.21
2022-08-30T19:50:19.330Z,63.90
2022-08-30T19:55:19.297Z,64.11
2022-08-30T20:00:19.284Z,64.21
2022-08-30T20:05:19.170Z,64.51
2022-08-30T20:10:19.126Z,64.31
2022-08-30T20:15:19.080Z,63.81
2022-08-30T20:20:20.782Z,64.31
2022-08-30T20:24:26.426Z,65.22
2022-08-30T20:25:19.961Z,64.21
2022-08-30T20:30:18.904Z,63.50
2022-08-30T20:35:18.847Z,63.60
2022-08-30T20:40:18.844Z,63.40
2022-08-30T20:45:18.737Z,63.60
2022-08-30T20:50:18.681Z,63.81
2022-08-30T20:55:18.626Z,63.40
2022-08-30T21:00:18.571Z,63.60
2022-08-30T21:05:18.667Z,63.90
2022-08-30T21:10:23.125Z,63.60
2022-08-30T21:15:36.692Z,63.70
2022-08-30T21:20:19.364Z,63.70
2022-08-30T21:25:18.300Z,63.70
2022-08-30T21:30:18.242Z,63.90
2022-08-30T21:35:18.199Z,63.70
2022-08-30T21:40:18.166Z,63.70
2022-08-30T21:45:18.079Z,63.70
2022-08-30T21:50:18.022Z,63.70
2022-08-30T21:55:17.971Z,63.50
2022-08-30T22:00:17.913Z,63.60
2022-08-30T22:05:17.855Z,63.50
2022-08-30T22:10:17.798Z,63.50
2022-08-30T22:15:26.868Z,63.50
2022-08-30T22:20:18.673Z,63.50
2022-08-30T22:25:17.635Z,64.01
2022-08-30T22:30:17.579Z,64.01
2022-08-30T22:35:17.525Z,63.70
2022-08-30T22:40:17.537Z,64.01
2022-08-30T22:45:17.417Z,63.70
2022-08-30T22:50:17.353Z,63.70
2022-08-30T22:55:17.306Z,64.21
2022-08-30T23:00:17.246Z,64.11
2022-08-30T23:05:17.279Z,64.01
2022-08-30T23:10:17.141Z,64.21
2022-08-30T23:15:17.084Z,63.90
2022-08-30T23:20:17.022Z,64.11
2022-08-30T23:25:16.980Z,63.81
